sensor_id;sensor_type;location;lat;lon;timestamp;P1;durP1;ratioP1;P2;durP2;ratioP2
61252;SDS011;47127;47.516;8.596;2023-09-07T00:01:53;9.80;;;6.13;;
61252;SDS011;47127;47.516;8.596;2023-09-07T00:04:19;14.18;;;6.45;;
61252;SDS011;47127;47.516;8.596;2023-09-07T00:06:47;10.40;;;5.90;;
61252;SDS011;47127;47.516;8.596;2023-09-07T00:09:16;11.82;;;5.78;;
61252;SDS011;47127;47.516;8.596;2023-09-07T00:11:44;9.57;;;5.70;;
61252;SDS011;47127;47.516;8.596;2023-09-07T00:14:10;10.13;;;5.82;;
61252;SDS011;47127;47.516;8.596;2023-09-07T00:16:36;10.55;;;6.45;;
61252;SDS011;47127;47.516;8.596;2023-09-07T00:19:03;10.52;;;6.20;;
61252;SDS011;47127;47.516;8.596;2023-09-07T00:21:31;13.35;;;6.40;;
61252;SDS011;47127;47.516;8.596;2023-09-07T00:23:57;12.05;;;6.80;;
61252;SDS011;47127;47.516;8.596;2023-09-07T00:26:22;12.20;;;6.90;;
61252;SDS011;47127;47.516;8.596;2023-09-07T00:28:48;11.68;;;5.68;;
61252;SDS011;47127;47.516;8.596;2023-09-07T00:31:13;9.98;;;6.15;;
61252;SDS011;47127;47.516;8.596;2023-09-07T00:33:39;8.88;;;5.68;;
61252;SDS011;47127;47.516;8.596;2023-09-07T00:36:04;11.15;;;6.82;;
61252;SDS011;47127;47.516;8.596;2023-09-07T00:38:30;9.63;;;6.10;;
61252;SDS011;47127;47.516;8.596;2023-09-07T00:40:56;12.40;;;6.80;;
61252;SDS011;47127;47.516;8.596;2023-09-07T00:43:21;15.25;;;6.90;;
61252;SDS011;47127;47.516;8.596;2023-09-07T00:45:47;9.68;;;6.35;;
61252;SDS011;47127;47.516;8.596;2023-09-07T00:48:13;9.60;;;6.15;;
61252;SDS011;47127;47.516;8.596;2023-09-07T00:54:03;9.85;;;5.68;;
61252;SDS011;47127;47.516;8.596;2023-09-07T00:56:28;11.13;;;6.78;;
61252;SDS011;47127;47.516;8.596;2023-09-07T00:58:54;9.35;;;5.70;;
61252;SDS011;47127;47.516;8.596;2023-09-07T01:01:22;14.05;;;5.82;;
61252;SDS011;47127;47.516;8.596;2023-09-07T01:03:49;10.80;;;5.70;;
61252;SDS011;47127;47.516;8.596;2023-09-07T01:06:16;9.68;;;6.38;;
61252;SDS011;47127;47.516;8.596;2023-09-07T01:08:51;10.02;;;6.05;;
61252;SDS011;47127;47.516;8.596;2023-09-07T01:11:21;15.38;;;6.40;;
61252;SDS011;47127;47.516;8.596;2023-09-07T01:13:48;11.60;;;6.18;;
61252;SDS011;47127;47.516;8.596;2023-09-07T01:16:14;9.15;;;5.93;;
61252;SDS011;47127;47.516;8.596;2023-09-07T01:18:39;11.07;;;6.45;;
61252;SDS011;47127;47.516;8.596;2023-09-07T01:21:06;9.23;;;5.32;;
61252;SDS011;47127;47.516;8.596;2023-09-07T01:23:34;10.77;;;6.05;;
61252;SDS011;47127;47.516;8.596;2023-09-07T01:26:01;10.18;;;6.15;;
61252;SDS011;47127;47.516;8.596;2023-09-07T01:28:29;9.25;;;5.93;;
61252;SDS011;47127;47.516;8.596;2023-09-07T01:30:54;10.65;;;6.97;;
61252;SDS011;47127;47.516;8.596;2023-09-07T01:33:21;9.35;;;5.35;;
61252;SDS011;47127;47.516;8.596;2023-09-07T01:35:46;11.27;;;5.95;;
61252;SDS011;47127;47.516;8.596;2023-09-07T01:38:12;9.40;;;5.38;;
61252;SDS011;47127;47.516;8.596;2023-09-07T01:40:37;11.68;;;6.43;;
61252;SDS011;47127;47.516;8.596;2023-09-07T01:43:03;10.70;;;6.78;;
61252;SDS011;47127;47.516;8.596;2023-09-07T01:45:29;10.25;;;6.40;;
61252;SDS011;47127;47.516;8.596;2023-09-07T01:47:54;11.32;;;6.47;;
61252;SDS011;47127;47.516;8.596;2023-09-07T01:50:20;12.32;;;6.78;;
61252;SDS011;47127;47.516;8.596;2023-09-07T01:52:46;16.33;;;7.03;;
61252;SDS011;47127;47.516;8.596;2023-09-07T01:55:15;9.13;;;5.70;;
61252;SDS011;47127;47.516;8.596;2023-09-07T01:57:41;11.70;;;5.53;;
61252;SDS011;47127;47.516;8.596;2023-09-07T02:00:06;11.77;;;6.07;;
61252;SDS011;47127;47.516;8.596;2023-09-07T02:02:32;12.55;;;5.90;;
61252;SDS011;47127;47.516;8.596;2023-09-07T02:04:58;11.88;;;6.18;;
61252;SDS011;47127;47.516;8.596;2023-09-07T02:07:23;9.43;;;5.55;;
61252;SDS011;47127;47.516;8.596;2023-09-07T02:09:49;13.27;;;6.53;;
61252;SDS011;47127;47.516;8.596;2023-09-07T02:12:14;10.90;;;6.45;;
61252;SDS011;47127;47.516;8.596;2023-09-07T02:14:40;11.38;;;6.57;;
61252;SDS011;47127;47.516;8.596;2023-09-07T02:17:06;11.02;;;6.47;;
61252;SDS011;47127;47.516;8.596;2023-09-07T02:19:31;12.82;;;6.15;;
61252;SDS011;47127;47.516;8.596;2023-09-07T02:21:57;12.13;;;5.73;;
61252;SDS011;47127;47.516;8.596;2023-09-07T02:24:22;9.25;;;6.03;;
61252;SDS011;47127;47.516;8.596;2023-09-07T02:26:48;9.40;;;6.05;;
61252;SDS011;47127;47.516;8.596;2023-09-07T02:29:14;10.80;;;5.78;;
61252;SDS011;47127;47.516;8.596;2023-09-07T02:31:40;10.77;;;5.75;;
61252;SDS011;47127;47.516;8.596;2023-09-07T02:34:05;13.00;;;6.07;;
61252;SDS011;47127;47.516;8.596;2023-09-07T02:36:31;9.25;;;5.43;;
61252;SDS011;47127;47.516;8.596;2023-09-07T02:38:58;9.55;;;5.43;;
61252;SDS011;47127;47.516;8.596;2023-09-07T02:41:23;12.23;;;5.22;;
61252;SDS011;47127;47.516;8.596;2023-09-07T02:43:49;9.57;;;5.40;;
61252;SDS011;47127;47.516;8.596;2023-09-07T02:46:14;10.93;;;4.90;;
61252;SDS011;47127;47.516;8.596;2023-09-07T02:48:41;10.90;;;6.15;;
61252;SDS011;47127;47.516;8.596;2023-09-07T02:51:06;11.30;;;5.60;;
61252;SDS011;47127;47.516;8.596;2023-09-07T02:53:32;8.30;;;5.22;;
61252;SDS011;47127;47.516;8.596;2023-09-07T02:55:57;10.43;;;6.25;;
61252;SDS011;47127;47.516;8.596;2023-09-07T02:58:23;9.32;;;5.80;;
61252;SDS011;47127;47.516;8.596;2023-09-07T03:00:49;8.73;;;5.60;;
61252;SDS011;47127;47.516;8.596;2023-09-07T03:03:15;9.88;;;6.45;;
61252;SDS011;47127;47.516;8.596;2023-09-07T03:05:40;9.40;;;5.57;;
61252;SDS011;47127;47.516;8.596;2023-09-07T03:08:07;10.23;;;6.05;;
61252;SDS011;47127;47.516;8.596;2023-09-07T03:10:33;10.50;;;6.03;;
61252;SDS011;47127;47.516;8.596;2023-09-07T03:13:04;12.57;;;5.80;;
61252;SDS011;47127;47.516;8.596;2023-09-07T03:15:32;12.57;;;6.32;;
61252;SDS011;47127;47.516;8.596;2023-09-07T03:17:57;10.05;;;5.50;;
61252;SDS011;47127;47.516;8.596;2023-09-07T03:20:23;10.80;;;6.15;;
61252;SDS011;47127;47.516;8.596;2023-09-07T03:22:48;13.07;;;6.40;;
61252;SDS011;47127;47.516;8.596;2023-09-07T03:25:14;9.70;;;5.47;;
61252;SDS011;47127;47.516;8.596;2023-09-07T03:27:39;12.88;;;6.43;;
61252;SDS011;47127;47.516;8.596;2023-09-07T03:30:05;11.85;;;6.10;;
61252;SDS011;47127;47.516;8.596;2023-09-07T03:32:32;10.50;;;6.53;;
61252;SDS011;47127;47.516;8.596;2023-09-07T03:35:02;11.38;;;6.18;;
61252;SDS011;47127;47.516;8.596;2023-09-07T03:37:34;11.70;;;6.57;;
61252;SDS011;47127;47.516;8.596;2023-09-07T03:39:59;10.60;;;6.45;;
61252;SDS011;47127;47.516;8.596;2023-09-07T03:42:25;12.15;;;6.95;;
61252;SDS011;47127;47.516;8.596;2023-09-07T03:44:50;12.85;;;6.30;;
61252;SDS011;47127;47.516;8.596;2023-09-07T03:47:17;12.40;;;6.75;;
61252;SDS011;47127;47.516;8.596;2023-09-07T03:49:43;11.75;;;6.65;;
61252;SDS011;47127;47.516;8.596;2023-09-07T03:52:09;14.20;;;5.90;;
61252;SDS011;47127;47.516;8.596;2023-09-07T03:54:34;14.15;;;6.15;;
61252;SDS011;47127;47.516;8.596;2023-09-07T03:57:00;10.40;;;6.35;;
61252;SDS011;47127;47.516;8.596;2023-09-07T03:59:27;11.23;;;6.30;;
61252;SDS011;47127;47.516;8.596;2023-09-07T04:01:53;11.02;;;6.30;;
61252;SDS011;47127;47.516;8.596;2023-09-07T04:04:19;10.63;;;6.53;;
61252;SDS011;47127;47.516;8.596;2023-09-07T04:06:46;10.32;;;6.10;;
61252;SDS011;47127;47.516;8.596;2023-09-07T04:09:15;10.60;;;6.28;;
61252;SDS011;47127;47.516;8.596;2023-09-07T04:11:42;9.55;;;6.35;;
61252;SDS011;47127;47.516;8.596;2023-09-07T04:14:08;13.18;;;7.00;;
61252;SDS011;47127;47.516;8.596;2023-09-07T04:16:33;12.25;;;6.60;;
61252;SDS011;47127;47.516;8.596;2023-09-07T04:18:59;10.52;;;6.63;;
61252;SDS011;47127;47.516;8.596;2023-09-07T04:21:24;14.50;;;7.00;;
61252;SDS011;47127;47.516;8.596;2023-09-07T04:23:50;10.20;;;6.07;;
61252;SDS011;47127;47.516;8.596;2023-09-07T04:26:15;12.27;;;6.65;;
61252;SDS011;47127;47.516;8.596;2023-09-07T04:28:41;11.75;;;6.75;;
61252;SDS011;47127;47.516;8.596;2023-09-07T04:31:07;12.93;;;6.57;;
61252;SDS011;47127;47.516;8.596;2023-09-07T04:33:32;10.48;;;6.70;;
61252;SDS011;47127;47.516;8.596;2023-09-07T04:38:35;12.52;;;6.63;;
61252;SDS011;47127;47.516;8.596;2023-09-07T04:41:07;12.93;;;7.32;;
61252;SDS011;47127;47.516;8.596;2023-09-07T04:43:34;11.85;;;7.18;;
61252;SDS011;47127;47.516;8.596;2023-09-07T04:46:00;10.70;;;6.95;;
61252;SDS011;47127;47.516;8.596;2023-09-07T04:48:25;10.43;;;6.75;;
61252;SDS011;47127;47.516;8.596;2023-09-07T04:51:25;13.55;;;6.80;;
61252;SDS011;47127;47.516;8.596;2023-09-07T04:53:45;13.05;;;6.47;;
61252;SDS011;47127;47.516;8.596;2023-09-07T04:56:11;12.57;;;6.85;;
61252;SDS011;47127;47.516;8.596;2023-09-07T04:58:37;12.88;;;6.63;;
61252;SDS011;47127;47.516;8.596;2023-09-07T05:01:03;20.00;;;7.40;;
61252;SDS011;47127;47.516;8.596;2023-09-07T05:03:35;11.15;;;6.40;;
61252;SDS011;47127;47.516;8.596;2023-09-07T05:06:02;11.48;;;6.95;;
61252;SDS011;47127;47.516;8.596;2023-09-07T05:08:28;14.95;;;7.13;;
61252;SDS011;47127;47.516;8.596;2023-09-07T05:10:58;17.60;;;6.93;;
61252;SDS011;47127;47.516;8.596;2023-09-07T05:13:26;13.40;;;6.63;;
61252;SDS011;47127;47.516;8.596;2023-09-07T05:15:53;15.82;;;7.20;;
61252;SDS011;47127;47.516;8.596;2023-09-07T05:18:19;13.98;;;6.97;;
61252;SDS011;47127;47.516;8.596;2023-09-07T05:20:45;59.10;;;9.48;;
61252;SDS011;47127;47.516;8.596;2023-09-07T05:23:13;29.38;;;6.68;;
61252;SDS011;47127;47.516;8.596;2023-09-07T05:25:44;13.05;;;7.22;;
61252;SDS011;47127;47.516;8.596;2023-09-07T05:28:10;11.80;;;6.82;;
61252;SDS011;47127;47.516;8.596;2023-09-07T05:30:37;13.88;;;7.22;;
61252;SDS011;47127;47.516;8.596;2023-09-07T05:33:03;13.57;;;6.97;;
61252;SDS011;47127;47.516;8.596;2023-09-07T05:35:29;15.68;;;8.10;;
61252;SDS011;47127;47.516;8.596;2023-09-07T05:37:57;13.55;;;6.32;;
61252;SDS011;47127;47.516;8.596;2023-09-07T05:40:23;16.13;;;7.20;;
61252;SDS011;47127;47.516;8.596;2023-09-07T05:42:49;12.38;;;7.18;;
61252;SDS011;47127;47.516;8.596;2023-09-07T05:45:15;13.27;;;7.93;;
61252;SDS011;47127;47.516;8.596;2023-09-07T05:47:40;11.50;;;7.00;;
61252;SDS011;47127;47.516;8.596;2023-09-07T05:50:06;14.30;;;6.40;;
61252;SDS011;47127;47.516;8.596;2023-09-07T05:52:31;16.02;;;8.65;;
61252;SDS011;47127;47.516;8.596;2023-09-07T05:54:57;13.55;;;8.15;;
61252;SDS011;47127;47.516;8.596;2023-09-07T05:57:22;13.15;;;7.43;;
61252;SDS011;47127;47.516;8.596;2023-09-07T05:59:48;13.52;;;6.90;;
61252;SDS011;47127;47.516;8.596;2023-09-07T06:02:14;19.17;;;7.95;;
61252;SDS011;47127;47.516;8.596;2023-09-07T06:04:39;15.77;;;7.13;;
61252;SDS011;47127;47.516;8.596;2023-09-07T06:07:05;14.60;;;6.90;;
61252;SDS011;47127;47.516;8.596;2023-09-07T06:09:31;14.50;;;7.75;;
61252;SDS011;47127;47.516;8.596;2023-09-07T06:11:56;14.55;;;6.88;;
61252;SDS011;47127;47.516;8.596;2023-09-07T06:14:22;16.70;;;7.35;;
61252;SDS011;47127;47.516;8.596;2023-09-07T06:16:47;14.68;;;7.30;;
61252;SDS011;47127;47.516;8.596;2023-09-07T06:19:13;11.80;;;7.28;;
61252;SDS011;47127;47.516;8.596;2023-09-07T06:21:39;13.68;;;7.53;;
61252;SDS011;47127;47.516;8.596;2023-09-07T06:24:05;14.20;;;7.57;;
61252;SDS011;47127;47.516;8.596;2023-09-07T06:26:31;14.00;;;8.80;;
61252;SDS011;47127;47.516;8.596;2023-09-07T06:28:57;12.20;;;7.03;;
61252;SDS011;47127;47.516;8.596;2023-09-07T06:31:22;23.90;;;7.80;;
61252;SDS011;47127;47.516;8.596;2023-09-07T06:33:48;17.60;;;7.07;;
61252;SDS011;47127;47.516;8.596;2023-09-07T06:36:14;12.98;;;7.43;;
61252;SDS011;47127;47.516;8.596;2023-09-07T06:38:39;14.05;;;7.10;;
61252;SDS011;47127;47.516;8.596;2023-09-07T06:41:05;13.82;;;6.82;;
61252;SDS011;47127;47.516;8.596;2023-09-07T06:43:32;13.98;;;7.13;;
61252;SDS011;47127;47.516;8.596;2023-09-07T06:46:07;14.13;;;7.13;;
61252;SDS011;47127;47.516;8.596;2023-09-07T06:48:34;13.40;;;7.13;;
61252;SDS011;47127;47.516;8.596;2023-09-07T06:51:05;15.63;;;7.22;;
61252;SDS011;47127;47.516;8.596;2023-09-07T06:53:31;12.48;;;6.78;;
61252;SDS011;47127;47.516;8.596;2023-09-07T06:56:00;13.68;;;7.50;;
61252;SDS011;47127;47.516;8.596;2023-09-07T06:58:26;13.27;;;7.03;;
61252;SDS011;47127;47.516;8.596;2023-09-07T07:00:52;14.07;;;7.43;;
61252;SDS011;47127;47.516;8.596;2023-09-07T07:03:22;12.38;;;7.00;;
61252;SDS011;47127;47.516;8.596;2023-09-07T07:05:47;14.32;;;6.55;;
61252;SDS011;47127;47.516;8.596;2023-09-07T07:08:13;14.38;;;6.85;;
61252;SDS011;47127;47.516;8.596;2023-09-07T07:10:38;15.30;;;6.72;;
61252;SDS011;47127;47.516;8.596;2023-09-07T07:13:04;14.23;;;6.00;;
61252;SDS011;47127;47.516;8.596;2023-09-07T07:15:29;15.70;;;6.05;;
61252;SDS011;47127;47.516;8.596;2023-09-07T07:17:55;10.52;;;5.95;;
61252;SDS011;47127;47.516;8.596;2023-09-07T07:20:20;12.35;;;6.07;;
61252;SDS011;47127;47.516;8.596;2023-09-07T07:22:46;13.80;;;6.13;;
61252;SDS011;47127;47.516;8.596;2023-09-07T07:25:11;14.07;;;6.72;;
61252;SDS011;47127;47.516;8.596;2023-09-07T07:27:37;10.55;;;6.40;;
61252;SDS011;47127;47.516;8.596;2023-09-07T07:30:03;10.80;;;5.93;;
61252;SDS011;47127;47.516;8.596;2023-09-07T07:32:31;11.38;;;5.75;;
61252;SDS011;47127;47.516;8.596;2023-09-07T07:34:56;13.45;;;6.32;;
61252;SDS011;47127;47.516;8.596;2023-09-07T07:37:22;12.18;;;6.03;;
61252;SDS011;47127;47.516;8.596;2023-09-07T07:39:47;16.60;;;6.60;;
61252;SDS011;47127;47.516;8.596;2023-09-07T07:42:13;11.93;;;6.80;;
61252;SDS011;47127;47.516;8.596;2023-09-07T07:44:38;14.20;;;5.93;;
61252;SDS011;47127;47.516;8.596;2023-09-07T07:47:07;9.77;;;5.75;;
61252;SDS011;47127;47.516;8.596;2023-09-07T07:49:36;11.75;;;5.97;;
61252;SDS011;47127;47.516;8.596;2023-09-07T07:52:01;10.00;;;6.28;;
61252;SDS011;47127;47.516;8.596;2023-09-07T07:54:27;14.82;;;6.20;;
61252;SDS011;47127;47.516;8.596;2023-09-07T07:56:54;11.45;;;5.65;;
61252;SDS011;47127;47.516;8.596;2023-09-07T07:59:20;17.70;;;6.78;;
61252;SDS011;47127;47.516;8.596;2023-09-07T08:01:45;12.68;;;6.50;;
61252;SDS011;47127;47.516;8.596;2023-09-07T08:04:11;16.08;;;6.95;;
61252;SDS011;47127;47.516;8.596;2023-09-07T08:06:37;14.52;;;6.00;;
61252;SDS011;47127;47.516;8.596;2023-09-07T08:09:02;17.20;;;6.88;;
61252;SDS011;47127;47.516;8.596;2023-09-07T08:11:28;13.65;;;5.93;;
61252;SDS011;47127;47.516;8.596;2023-09-07T08:13:55;12.85;;;6.00;;
61252;SDS011;47127;47.516;8.596;2023-09-07T08:16:20;11.32;;;5.97;;
61252;SDS011;47127;47.516;8.596;2023-09-07T08:18:47;13.00;;;7.03;;
61252;SDS011;47127;47.516;8.596;2023-09-07T08:21:13;10.10;;;6.40;;
61252;SDS011;47127;47.516;8.596;2023-09-07T08:23:39;11.07;;;6.35;;
61252;SDS011;47127;47.516;8.596;2023-09-07T08:26:05;13.93;;;5.97;;
61252;SDS011;47127;47.516;8.596;2023-09-07T08:28:30;9.77;;;5.80;;
61252;SDS011;47127;47.516;8.596;2023-09-07T08:30:56;10.82;;;5.68;;
61252;SDS011;47127;47.516;8.596;2023-09-07T08:33:24;10.50;;;6.05;;
61252;SDS011;47127;47.516;8.596;2023-09-07T08:35:55;12.13;;;6.22;;
61252;SDS011;47127;47.516;8.596;2023-09-07T08:38:21;10.18;;;6.28;;
61252;SDS011;47127;47.516;8.596;2023-09-07T08:40:51;12.77;;;6.63;;
61252;SDS011;47127;47.516;8.596;2023-09-07T08:43:19;11.93;;;6.20;;
61252;SDS011;47127;47.516;8.596;2023-09-07T08:45:48;9.70;;;6.10;;
61252;SDS011;47127;47.516;8.596;2023-09-07T08:48:24;11.35;;;6.45;;
61252;SDS011;47127;47.516;8.596;2023-09-07T08:50:57;14.18;;;6.53;;
61252;SDS011;47127;47.516;8.596;2023-09-07T08:53:23;13.93;;;6.13;;
61252;SDS011;47127;47.516;8.596;2023-09-07T08:55:50;11.05;;;6.50;;
61252;SDS011;47127;47.516;8.596;2023-09-07T08:58:16;16.33;;;7.35;;
61252;SDS011;47127;47.516;8.596;2023-09-07T09:00:41;10.65;;;6.63;;
61252;SDS011;47127;47.516;8.596;2023-09-07T09:03:08;10.75;;;6.57;;
61252;SDS011;47127;47.516;8.596;2023-09-07T09:05:35;14.95;;;6.63;;
61252;SDS011;47127;47.516;8.596;2023-09-07T09:08:03;13.43;;;6.95;;
61252;SDS011;47127;47.516;8.596;2023-09-07T09:10:30;21.73;;;7.18;;
61252;SDS011;47127;47.516;8.596;2023-09-07T09:12:56;19.33;;;7.25;;
61252;SDS011;47127;47.516;8.596;2023-09-07T09:15:24;10.43;;;6.72;;
61252;SDS011;47127;47.516;8.596;2023-09-07T09:17:51;11.60;;;6.88;;
61252;SDS011;47127;47.516;8.596;2023-09-07T09:20:22;14.40;;;6.93;;
61252;SDS011;47127;47.516;8.596;2023-09-07T09:22:50;43.13;;;9.10;;
61252;SDS011;47127;47.516;8.596;2023-09-07T09:25:19;14.77;;;6.93;;
61252;SDS011;47127;47.516;8.596;2023-09-07T09:27:46;11.63;;;6.20;;
61252;SDS011;47127;47.516;8.596;2023-09-07T09:30:12;10.65;;;6.75;;
61252;SDS011;47127;47.516;8.596;2023-09-07T09:32:41;14.93;;;7.25;;
61252;SDS011;47127;47.516;8.596;2023-09-07T09:35:09;12.35;;;7.20;;
61252;SDS011;47127;47.516;8.596;2023-09-07T09:37:45;11.25;;;6.65;;
61252;SDS011;47127;47.516;8.596;2023-09-07T09:40:13;15.15;;;7.18;;
61252;SDS011;47127;47.516;8.596;2023-09-07T09:42:40;10.32;;;6.68;;
61252;SDS011;47127;47.516;8.596;2023-09-07T09:45:07;13.23;;;6.88;;
61252;SDS011;47127;47.516;8.596;2023-09-07T09:47:35;12.13;;;6.85;;
61252;SDS011;47127;47.516;8.596;2023-09-07T09:50:04;10.95;;;7.07;;
61252;SDS011;47127;47.516;8.596;2023-09-07T09:52:33;10.35;;;6.82;;
61252;SDS011;47127;47.516;8.596;2023-09-07T09:55:00;10.40;;;6.65;;
61252;SDS011;47127;47.516;8.596;2023-09-07T09:57:26;12.80;;;6.22;;
61252;SDS011;47127;47.516;8.596;2023-09-07T09:59:54;10.30;;;6.30;;
61252;SDS011;47127;47.516;8.596;2023-09-07T10:02:20;10.90;;;6.90;;
61252;SDS011;47127;47.516;8.596;2023-09-07T10:04:46;11.85;;;6.65;;
61252;SDS011;47127;47.516;8.596;2023-09-07T10:07:12;9.65;;;6.47;;
61252;SDS011;47127;47.516;8.596;2023-09-07T10:09:38;10.52;;;6.10;;
61252;SDS011;47127;47.516;8.596;2023-09-07T10:12:04;13.35;;;6.47;;
61252;SDS011;47127;47.516;8.596;2023-09-07T10:14:39;12.85;;;6.75;;
61252;SDS011;47127;47.516;8.596;2023-09-07T10:17:06;15.35;;;6.72;;
61252;SDS011;47127;47.516;8.596;2023-09-07T10:19:34;9.25;;;5.72;;
61252;SDS011;47127;47.516;8.596;2023-09-07T10:22:01;10.75;;;6.47;;
61252;SDS011;47127;47.516;8.596;2023-09-07T10:24:29;11.13;;;6.35;;
61252;SDS011;47127;47.516;8.596;2023-09-07T10:27:03;11.05;;;6.25;;
61252;SDS011;47127;47.516;8.596;2023-09-07T10:29:42;10.10;;;6.35;;
61252;SDS011;47127;47.516;8.596;2023-09-07T10:32:11;10.68;;;6.88;;
61252;SDS011;47127;47.516;8.596;2023-09-07T10:34:40;12.02;;;6.15;;
61252;SDS011;47127;47.516;8.596;2023-09-07T10:37:09;10.13;;;6.30;;
61252;SDS011;47127;47.516;8.596;2023-09-07T10:39:42;10.00;;;6.32;;
61252;SDS011;47127;47.516;8.596;2023-09-07T10:42:30;9.43;;;6.20;;
61252;SDS011;47127;47.516;8.596;2023-09-07T10:44:55;9.20;;;5.82;;
61252;SDS011;47127;47.516;8.596;2023-09-07T10:47:20;11.18;;;6.40;;
61252;SDS011;47127;47.516;8.596;2023-09-07T10:49:46;12.73;;;6.65;;
61252;SDS011;47127;47.516;8.596;2023-09-07T10:52:12;12.90;;;7.18;;
61252;SDS011;47127;47.516;8.596;2023-09-07T10:54:38;11.27;;;6.93;;
61252;SDS011;47127;47.516;8.596;2023-09-07T10:57:10;13.43;;;6.38;;
61252;SDS011;47127;47.516;8.596;2023-09-07T10:59:38;11.00;;;6.32;;
61252;SDS011;47127;47.516;8.596;2023-09-07T11:02:09;10.45;;;6.38;;
61252;SDS011;47127;47.516;8.596;2023-09-07T11:04:34;11.18;;;6.20;;
61252;SDS011;47127;47.516;8.596;2023-09-07T11:07:00;10.20;;;6.00;;
61252;SDS011;47127;47.516;8.596;2023-09-07T11:09:27;10.18;;;6.13;;
61252;SDS011;47127;47.516;8.596;2023-09-07T11:11:54;13.27;;;5.55;;
61252;SDS011;47127;47.516;8.596;2023-09-07T11:14:21;10.52;;;5.97;;
61252;SDS011;47127;47.516;8.596;2023-09-07T11:16:47;9.23;;;5.75;;
61252;SDS011;47127;47.516;8.596;2023-09-07T11:19:13;7.80;;;5.80;;
61252;SDS011;47127;47.516;8.596;2023-09-07T11:21:40;12.63;;;6.32;;
61252;SDS011;47127;47.516;8.596;2023-09-07T11:24:06;9.35;;;6.10;;
61252;SDS011;47127;47.516;8.596;2023-09-07T11:26:42;10.68;;;5.75;;
61252;SDS011;47127;47.516;8.596;2023-09-07T11:29:09;13.18;;;6.40;;
61252;SDS011;47127;47.516;8.596;2023-09-07T11:31:34;9.35;;;5.97;;
61252;SDS011;47127;47.516;8.596;2023-09-07T11:34:00;9.68;;;5.88;;
61252;SDS011;47127;47.516;8.596;2023-09-07T11:36:25;11.75;;;5.80;;
61252;SDS011;47127;47.516;8.596;2023-09-07T11:38:51;11.75;;;5.68;;
61252;SDS011;47127;47.516;8.596;2023-09-07T11:41:16;9.98;;;6.05;;
61252;SDS011;47127;47.516;8.596;2023-09-07T11:43:42;11.27;;;5.53;;
61252;SDS011;47127;47.516;8.596;2023-09-07T11:46:10;9.40;;;5.97;;
61252;SDS011;47127;47.516;8.596;2023-09-07T11:48:35;11.38;;;5.82;;
61252;SDS011;47127;47.516;8.596;2023-09-07T11:51:01;10.50;;;6.72;;
61252;SDS011;47127;47.516;8.596;2023-09-07T11:53:27;18.98;;;12.10;;
61252;SDS011;47127;47.516;8.596;2023-09-07T11:55:52;11.70;;;5.90;;
61252;SDS011;47127;47.516;8.596;2023-09-07T11:58:18;11.55;;;6.45;;
61252;SDS011;47127;47.516;8.596;2023-09-07T12:00:44;10.95;;;5.53;;
61252;SDS011;47127;47.516;8.596;2023-09-07T12:03:10;11.43;;;6.65;;
61252;SDS011;47127;47.516;8.596;2023-09-07T12:05:35;7.93;;;5.40;;
61252;SDS011;47127;47.516;8.596;2023-09-07T12:08:02;13.15;;;7.20;;
61252;SDS011;47127;47.516;8.596;2023-09-07T12:10:28;12.88;;;6.78;;
61252;SDS011;47127;47.516;8.596;2023-09-07T12:12:54;8.65;;;5.50;;
61252;SDS011;47127;47.516;8.596;2023-09-07T12:15:19;10.73;;;6.47;;
61252;SDS011;47127;47.516;8.596;2023-09-07T12:17:45;9.93;;;5.15;;
61252;SDS011;47127;47.516;8.596;2023-09-07T12:20:11;9.20;;;5.40;;
61252;SDS011;47127;47.516;8.596;2023-09-07T12:22:39;10.07;;;5.82;;
61252;SDS011;47127;47.516;8.596;2023-09-07T12:25:05;11.88;;;5.93;;
61252;SDS011;47127;47.516;8.596;2023-09-07T12:27:32;8.23;;;4.88;;
61252;SDS011;47127;47.516;8.596;2023-09-07T12:30:01;10.40;;;5.70;;
61252;SDS011;47127;47.516;8.596;2023-09-07T12:32:33;9.68;;;5.05;;
61252;SDS011;47127;47.516;8.596;2023-09-07T12:34:59;10.57;;;5.15;;
61252;SDS011;47127;47.516;8.596;2023-09-07T12:37:24;7.35;;;5.22;;
61252;SDS011;47127;47.516;8.596;2023-09-07T12:39:50;7.28;;;4.78;;
61252;SDS011;47127;47.516;8.596;2023-09-07T12:42:17;9.05;;;4.95;;
61252;SDS011;47127;47.516;8.596;2023-09-07T12:44:43;17.15;;;5.40;;
61252;SDS011;47127;47.516;8.596;2023-09-07T12:47:09;10.48;;;4.90;;
61252;SDS011;47127;47.516;8.596;2023-09-07T12:49:35;9.73;;;4.95;;
61252;SDS011;47127;47.516;8.596;2023-09-07T12:52:01;9.38;;;4.30;;
61252;SDS011;47127;47.516;8.596;2023-09-07T12:54:33;6.72;;;4.72;;
61252;SDS011;47127;47.516;8.596;2023-09-07T12:56:59;6.07;;;4.20;;
61252;SDS011;47127;47.516;8.596;2023-09-07T12:59:24;6.45;;;4.68;;
61252;SDS011;47127;47.516;8.596;2023-09-07T13:01:50;8.95;;;4.88;;
61252;SDS011;47127;47.516;8.596;2023-09-07T13:04:18;6.38;;;4.15;;
61252;SDS011;47127;47.516;8.596;2023-09-07T13:06:44;8.60;;;4.53;;
61252;SDS011;47127;47.516;8.596;2023-09-07T13:09:10;9.70;;;4.82;;
61252;SDS011;47127;47.516;8.596;2023-09-07T13:11:36;8.30;;;5.07;;
61252;SDS011;47127;47.516;8.596;2023-09-07T13:14:02;9.40;;;4.55;;
61252;SDS011;47127;47.516;8.596;2023-09-07T13:16:27;6.53;;;3.75;;
61252;SDS011;47127;47.516;8.596;2023-09-07T13:18:53;7.15;;;4.55;;
61252;SDS011;47127;47.516;8.596;2023-09-07T13:21:18;9.82;;;4.80;;
61252;SDS011;47127;47.516;8.596;2023-09-07T13:23:44;7.13;;;4.13;;
61252;SDS011;47127;47.516;8.596;2023-09-07T13:26:11;8.60;;;4.93;;
61252;SDS011;47127;47.516;8.596;2023-09-07T13:28:37;7.07;;;4.70;;
61252;SDS011;47127;47.516;8.596;2023-09-07T13:31:03;8.23;;;4.32;;
61252;SDS011;47127;47.516;8.596;2023-09-07T13:33:28;7.30;;;4.40;;
61252;SDS011;47127;47.516;8.596;2023-09-07T13:35:55;14.35;;;5.03;;
61252;SDS011;47127;47.516;8.596;2023-09-07T13:38:20;7.63;;;4.90;;
61252;SDS011;47127;47.516;8.596;2023-09-07T13:40:46;10.60;;;4.28;;
61252;SDS011;47127;47.516;8.596;2023-09-07T13:43:11;10.35;;;4.18;;
61252;SDS011;47127;47.516;8.596;2023-09-07T13:45:37;8.27;;;4.47;;
61252;SDS011;47127;47.516;8.596;2023-09-07T13:48:02;6.97;;;4.50;;
61252;SDS011;47127;47.516;8.596;2023-09-07T13:50:28;6.18;;;4.25;;
61252;SDS011;47127;47.516;8.596;2023-09-07T13:52:54;9.75;;;4.68;;
61252;SDS011;47127;47.516;8.596;2023-09-07T13:55:20;8.68;;;3.88;;
61252;SDS011;47127;47.516;8.596;2023-09-07T13:57:46;7.70;;;4.80;;
61252;SDS011;47127;47.516;8.596;2023-09-07T14:00:12;7.78;;;4.60;;
61252;SDS011;47127;47.516;8.596;2023-09-07T14:02:38;8.02;;;4.15;;
61252;SDS011;47127;47.516;8.596;2023-09-07T14:05:04;40.17;;;6.95;;
61252;SDS011;47127;47.516;8.596;2023-09-07T14:07:30;11.63;;;5.15;;
61252;SDS011;47127;47.516;8.596;2023-09-07T14:09:55;9.70;;;4.32;;
61252;SDS011;47127;47.516;8.596;2023-09-07T14:12:21;7.30;;;4.45;;
61252;SDS011;47127;47.516;8.596;2023-09-07T14:14:47;8.73;;;4.75;;
61252;SDS011;47127;47.516;8.596;2023-09-07T14:17:13;11.40;;;5.05;;
61252;SDS011;47127;47.516;8.596;2023-09-07T14:19:38;6.82;;;4.80;;
61252;SDS011;47127;47.516;8.596;2023-09-07T14:22:04;6.85;;;4.53;;
61252;SDS011;47127;47.516;8.596;2023-09-07T14:24:30;8.18;;;4.88;;
61252;SDS011;47127;47.516;8.596;2023-09-07T14:26:55;7.93;;;4.18;;
61252;SDS011;47127;47.516;8.596;2023-09-07T14:29:21;6.68;;;4.70;;
61252;SDS011;47127;47.516;8.596;2023-09-07T14:31:46;7.25;;;4.57;;
61252;SDS011;47127;47.516;8.596;2023-09-07T14:34:12;8.40;;;4.70;;
61252;SDS011;47127;47.516;8.596;2023-09-07T14:36:38;10.43;;;4.68;;
61252;SDS011;47127;47.516;8.596;2023-09-07T14:39:06;8.18;;;4.53;;
61252;SDS011;47127;47.516;8.596;2023-09-07T14:41:33;7.22;;;3.83;;